Time;durP1;ratioP1;P1;durP2;ratioP2;P2;SDS_P1;SDS_P2;PMS_P1;PMS_P2;Temp;Humidity;BMP_temperature;BMP_pressure;BME280_temperature;BME280_humidity;BME280_pressure;Samples;Min_cycle;Max_cycle;Signal;HPM_P1;HPM_P2
2023/05/26 00:02:07;;;;;;;30.97;6.80;;;13.10;99.90;;;;;;7281961;19;20196;-79
2023/05/26 00:04:33;;;;;;;28.97;6.47;;;13.10;99.90;;;;;;7281599;19;20214;-79
2023/05/26 00:06:59;;;;;;;33.83;7.33;;;12.90;99.90;;;;;;7292976;19;20194;-79
2023/05/26 00:09:25;;;;;;;31.17;7.40;;;12.80;99.90;;;;;;7305035;19;20185;-78
2023/05/26 00:11:51;;;;;;;27.33;7.17;;;12.80;99.90;;;;;;7283514;19;20196;-79
2023/05/26 00:14:17;;;;;;;33.80;7.07;;;12.90;99.90;;;;;;7283030;19;20190;-79
2023/05/26 00:16:44;;;;;;;30.17;7.00;;;12.90;99.90;;;;;;7281398;19;20215;-79
2023/05/26 00:19:11;;;;;;;29.83;7.13;;;12.90;99.90;;;;;;7283445;19;20181;-79
2023/05/26 00:21:39;;;;;;;34.50;7.40;;;12.90;99.90;;;;;;7282640;19;20211;-79
2023/05/26 00:24:05;;;;;;;37.53;6.93;;;12.80;99.90;;;;;;7283619;19;20192;-79
2023/05/26 00:26:31;;;;;;;35.63;7.03;;;12.90;99.90;;;;;;7282031;19;20265;-80
2023/05/26 00:28:58;;;;;;;33.37;8.00;;;12.90;99.90;;;;;;7304506;19;20195;-80
2023/05/26 00:31:24;;;;;;;32.17;6.87;;;13.00;99.90;;;;;;7282703;19;20590;-79
2023/05/26 00:33:50;;;;;;;35.43;7.53;;;12.90;99.90;;;;;;7283508;19;20197;-79
2023/05/26 00:36:16;;;;;;;30.43;6.77;;;13.00;99.90;;;;;;7280889;19;20805;-79
2023/05/26 00:38:42;;;;;;;31.20;7.53;;;12.80;99.90;;;;;;7282471;19;20541;-79
2023/05/26 00:41:08;;;;;;;35.27;7.43;;;12.70;99.90;;;;;;7282552;19;20224;-79
2023/05/26 00:43:34;;;;;;;30.70;7.60;;;12.60;99.90;;;;;;7283188;19;20191;-79
2023/05/26 00:46:00;;;;;;;32.73;7.40;;;12.60;99.90;;;;;;7283809;19;20182;-80
2023/05/26 00:48:25;;;;;;;33.03;7.63;;;12.70;99.90;;;;;;7302790;19;20193;-79
2023/05/26 00:50:51;;;;;;;31.20;7.83;;;12.60;99.90;;;;;;7282458;19;20187;-78
2023/05/26 00:53:17;;;;;;;28.93;7.03;;;12.50;99.90;;;;;;7282887;19;20197;-79
2023/05/26 00:55:46;;;;;;;29.00;8.13;;;12.60;99.90;;;;;;7281661;19;20193;-79
2023/05/26 00:58:11;;;;;;;39.03;8.27;;;12.60;99.90;;;;;;7281414;19;20657;-79
2023/05/26 01:00:37;;;;;;;38.20;7.63;;;12.60;99.90;;;;;;7282813;19;20192;-79
2023/05/26 01:03:04;;;;;;;34.77;8.53;;;12.60;99.90;;;;;;7282347;19;20189;-79
2023/05/26 01:05:30;;;;;;;33.07;8.00;;;12.60;99.90;;;;;;7282504;19;20533;-79
2023/05/26 01:07:56;;;;;;;34.90;7.67;;;12.50;99.90;;;;;;7304881;19;20195;-80
2023/05/26 01:10:23;;;;;;;32.87;8.00;;;12.40;99.90;;;;;;7281967;19;20192;-79
2023/05/26 01:12:58;;;;;;;37.23;7.33;;;12.40;99.90;;;;;;7280927;19;20185;-79
2023/05/26 01:15:30;;;;;;;36.00;8.53;;;12.50;99.90;;;;;;7286640;19;20525;-79
2023/05/26 01:18:14;;;;;;;23.33;7.10;;;12.60;99.90;;;;;;7288631;19;20264;-80
2023/05/26 01:20:43;;;;;;;39.53;7.90;;;12.50;99.90;;;;;;7186067;19;2005978;-79
2023/05/26 01:23:41;;;;;;;32.37;7.87;;;12.50;99.90;;;;;;7288529;19;20194;-79
2023/05/26 01:26:21;;;;;;;34.40;7.50;;;12.40;99.90;;;;;;7186484;19;2004684;-79
2023/05/26 01:28:51;;;;;;;41.83;7.63;;;12.20;99.90;;;;;;7287040;19;20214;-79
2023/05/26 01:31:19;;;;;;;36.93;7.63;;;12.20;99.90;;;;;;7286885;19;25409;-79
2023/05/26 01:33:44;;;;;;;32.50;8.17;;;12.30;99.90;;;;;;7288224;19;20190;-79
2023/05/26 01:36:10;;;;;;;29.00;7.07;;;12.20;99.90;;;;;;7288867;19;20188;-79
2023/05/26 01:38:36;;;;;;;34.23;7.80;;;12.10;99.90;;;;;;7287426;19;20173;-79
2023/05/26 01:41:08;;;;;;;34.53;7.60;;;12.10;99.90;;;;;;7288178;19;20192;-79
2023/05/26 01:43:49;;;;;;;38.97;7.90;;;12.20;99.90;;;;;;7287125;19;20791;-79
2023/05/26 01:46:20;;;;;;;39.67;7.57;;;12.10;99.90;;;;;;7288011;19;20664;-79
2023/05/26 01:48:48;;;;;;;35.27;8.20;;;12.00;99.90;;;;;;7285081;19;20207;-79
2023/05/26 01:51:17;;;;;;;34.27;7.93;;;12.00;99.90;;;;;;7288919;19;20250;-79
2023/05/26 01:53:44;;;;;;;31.50;7.80;;;12.00;99.90;;;;;;7287012;19;20200;-79
2023/05/26 01:56:11;;;;;;;33.23;8.20;;;11.90;99.90;;;;;;7288144;19;20211;-79
2023/05/26 01:58:39;;;;;;;35.30;7.77;;;11.90;99.90;;;;;;7286067;19;20297;-79
2023/05/26 02:01:06;;;;;;;32.77;8.00;;;11.90;99.90;;;;;;7286731;19;20287;-79
2023/05/26 02:03:33;;;;;;;35.33;6.93;;;11.80;99.90;;;;;;7283353;19;20188;-79
2023/05/26 02:05:59;;;;;;;35.13;8.13;;;11.60;99.90;;;;;;7306647;19;20211;-79
2023/05/26 02:08:25;;;;;;;33.83;8.13;;;11.60;99.90;;;;;;7296504;19;20312;-78
2023/05/26 02:10:50;;;;;;;33.70;7.43;;;11.70;99.90;;;;;;7286671;19;20204;-79
2023/05/26 02:13:16;;;;;;;34.73;7.67;;;11.70;99.90;;;;;;7287279;19;20205;-79
2023/05/26 02:15:42;;;;;;;34.17;7.90;;;11.60;99.90;;;;;;7286689;19;20192;-80
2023/05/26 02:18:07;;;;;;;34.10;8.13;;;11.40;99.90;;;;;;7286903;19;20206;-79
2023/05/26 02:20:33;;;;;;;34.40;7.77;;;11.40;99.90;;;;;;7284773;19;20240;-80
2023/05/26 02:22:59;;;;;;;34.00;7.07;;;11.50;99.90;;;;;;7306267;19;20191;-79
2023/05/26 02:25:25;;;;;;;34.33;7.70;;;11.40;99.90;;;;;;7294235;19;20218;-79
2023/05/26 02:27:51;;;;;;;31.03;7.93;;;11.40;99.90;;;;;;7287022;19;20195;-79
2023/05/26 02:30:17;;;;;;;34.40;7.47;;;11.50;99.90;;;;;;7285227;19;20199;-79
2023/05/26 02:32:43;;;;;;;30.70;7.57;;;11.40;99.90;;;;;;7287570;19;20196;-79
2023/05/26 02:35:11;;;;;;;30.97;7.33;;;11.20;99.90;;;;;;7285420;19;20211;-79
2023/05/26 02:37:36;;;;;;;30.37;6.93;;;11.30;99.90;;;;;;7285530;19;20294;-79
2023/05/26 02:40:04;;;;;;;33.87;7.27;;;11.50;99.90;;;;;;7286310;19;20194;-79
2023/05/26 02:42:30;;;;;;;37.60;7.40;;;11.50;99.90;;;;;;7297076;19;20204;-79
2023/05/26 02:44:57;;;;;;;30.47;7.30;;;11.40;99.90;;;;;;7308209;19;20279;-79
2023/05/26 02:47:22;;;;;;;37.90;7.07;;;11.40;99.90;;;;;;7285167;19;20214;-79
2023/05/26 02:49:48;;;;;;;35.53;7.03;;;11.30;99.90;;;;;;7283862;19;20240;-79
2023/05/26 02:52:13;;;;;;;27.13;6.50;;;11.20;99.90;;;;;;7286604;19;20218;-79
2023/05/26 02:54:39;;;;;;;32.47;6.57;;;11.20;99.90;;;;;;7285491;19;20197;-79
2023/05/26 02:57:06;;;;;;;29.10;6.90;;;11.10;99.90;;;;;;7284478;19;20193;-79
2023/05/26 02:59:31;;;;;;;34.77;7.67;;;11.10;99.90;;;;;;7286459;19;20197;-79
2023/05/26 03:01:57;;;;;;;33.97;6.77;;;11.20;99.90;;;;;;7307251;19;20176;-79
2023/05/26 03:04:23;;;;;;;31.73;7.03;;;11.10;99.90;;;;;;7283273;19;20605;-79
2023/05/26 03:06:48;;;;;;;31.97;7.07;;;11.20;99.90;;;;;;7286921;19;20223;-79
2023/05/26 03:09:19;;;;;;;42.07;7.43;;;11.20;99.90;;;;;;7284098;19;20797;-80
2023/05/26 03:11:45;;;;;;;29.87;6.63;;;11.30;99.90;;;;;;7286678;19;20202;-80
2023/05/26 03:14:12;;;;;;;31.50;7.17;;;11.30;99.90;;;;;;7285160;19;20209;-80
2023/05/26 03:16:37;;;;;;;35.00;7.43;;;11.30;99.90;;;;;;7285393;19;20187;-80
2023/05/26 03:19:03;;;;;;;34.73;6.93;;;11.30;99.90;;;;;;7285683;19;20202;-80
2023/05/26 03:21:29;;;;;;;35.40;6.83;;;11.20;99.90;;;;;;7304197;19;20683;-80
2023/05/26 03:23:55;;;;;;;33.00;6.60;;;11.30;99.90;;;;;;7299476;19;20191;-80
2023/05/26 03:26:22;;;;;;;31.93;7.57;;;11.20;99.90;;;;;;7284635;19;20723;-80
2023/05/26 03:28:48;;;;;;;40.67;7.20;;;11.00;99.90;;;;;;7282520;19;20695;-80
2023/05/26 03:31:13;;;;;;;41.47;7.87;;;10.90;99.90;;;;;;7284675;19;20261;-80
2023/05/26 03:33:39;;;;;;;32.37;7.27;;;11.00;99.90;;;;;;7284973;19;20181;-80
2023/05/26 03:36:06;;;;;;;27.83;7.50;;;11.10;99.90;;;;;;7283366;19;20190;-80
2023/05/26 03:38:32;;;;;;;30.13;6.77;;;10.90;99.90;;;;;;7284958;19;20255;-80
2023/05/26 03:41:00;;;;;;;37.23;6.80;;;10.80;99.90;;;;;;7290689;19;20185;-80
2023/05/26 03:43:26;;;;;;;38.97;7.07;;;10.80;99.90;;;;;;7306153;19;20256;-80
2023/05/26 03:45:52;;;;;;;35.43;6.53;;;10.90;99.90;;;;;;7284723;19;20550;-79
2023/05/26 03:48:19;;;;;;;28.23;6.10;;;10.70;99.90;;;;;;7283418;19;20552;-80
2023/05/26 03:50:47;;;;;;;36.00;7.13;;;10.70;99.90;;;;;;7284004;19;20519;-80
2023/05/26 03:53:13;;;;;;;30.07;6.83;;;10.70;99.90;;;;;;7284908;19;20190;-80
2023/05/26 03:55:41;;;;;;;33.67;6.70;;;10.80;99.90;;;;;;7283095;19;20186;-80
2023/05/26 03:58:06;;;;;;;35.17;6.93;;;10.90;99.90;;;;;;7282112;19;20625;-81
2023/05/26 04:00:32;;;;;;;41.23;7.23;;;10.90;99.90;;;;;;7283779;19;20194;-81
2023/05/26 04:02:59;;;;;;;39.50;6.83;;;11.00;99.90;;;;;;7303993;19;20618;-80
2023/05/26 04:05:26;;;;;;;34.37;7.37;;;10.90;99.90;;;;;;7284493;19;20178;-80
2023/05/26 04:07:53;;;;;;;28.40;6.60;;;11.00;99.90;;;;;;7282877;19;20216;-81
2023/05/26 04:10:20;;;;;;;30.17;6.67;;;10.90;99.90;;;;;;7281887;19;20198;-80
2023/05/26 04:12:45;;;;;;;33.60;6.60;;;10.90;99.90;;;;;;7283748;19;20204;-80
2023/05/26 04:15:11;;;;;;;36.50;6.83;;;11.00;99.90;;;;;;7283470;19;20201;-80
2023/05/26 04:17:38;;;;;;;30.97;7.03;;;11.10;99.90;;;;;;7284391;19;20198;-81
2023/05/26 04:20:22;;;;;;;36.53;7.03;;;11.10;99.90;;;;;;7283483;19;20187;-80
2023/05/26 04:22:48;;;;;;;35.00;7.03;;;11.20;99.90;;;;;;7283074;19;20199;-80
2023/05/26 04:25:15;;;;;;;35.47;7.47;;;11.20;99.90;;;;;;7283885;19;20212;-80
2023/05/26 04:27:52;;;;;;;40.50;6.93;;;11.30;99.90;;;;;;7282409;19;20196;-80
2023/05/26 04:30:39;;;;;;;33.93;7.43;;;11.30;99.90;;;;;;7180439;19;2004656;-80
2023/05/26 04:33:25;;;;;;;34.10;7.03;;;11.30;99.90;;;;;;7284948;19;20190;-80
2023/05/26 04:36:16;;;;;;;37.13;6.93;;;11.40;99.90;;;;;;7181574;19;2004627;-80
2023/05/26 04:38:45;;;;;;;31.23;6.57;;;11.60;99.90;;;;;;7281670;19;20695;-80
2023/05/26 04:41:11;;;;;;;31.17;6.83;;;11.70;99.90;;;;;;7284188;19;20199;-80
2023/05/26 04:43:38;;;;;;;35.97;6.90;;;12.10;99.90;;;;;;7280945;19;20704;-80
2023/05/26 04:46:03;;;;;;;36.67;6.90;;;12.30;99.90;;;;;;7283637;19;20198;-80
2023/05/26 04:48:30;;;;;;;33.53;6.53;;;12.30;99.90;;;;;;7295671;19;20196;-81
2023/05/26 04:50:56;;;;;;;33.30;6.50;;;12.60;99.90;;;;;;7309551;19;20210;-79
2023/05/26 04:53:22;;;;;;;33.53;6.30;;;12.80;99.90;;;;;;7290495;19;20635;-80
2023/05/26 04:55:47;;;;;;;26.20;6.03;;;13.00;99.90;;;;;;7289340;19;20181;-80
2023/05/26 04:58:14;;;;;;;32.17;6.30;;;12.90;99.90;;;;;;7289304;19;20216;-79
2023/05/26 05:00:40;;;;;;;34.23;6.97;;;12.70;99.90;;;;;;7289878;19;20212;-80
2023/05/26 05:03:24;;;;;;;28.03;6.50;;;12.70;99.90;;;;;;7289828;19;20205;-80
2023/05/26 05:06:01;;;;;;;28.97;6.50;;;12.90;99.90;;;;;;7269841;19;20287;-81
2023/05/26 05:08:28;;;;;;;35.13;7.37;;;13.20;99.90;;;;;;7311076;19;20189;-81
2023/05/26 05:10:54;;;;;;;34.87;6.30;;;13.20;99.90;;;;;;7288390;19;20254;-81
2023/05/26 05:13:20;;;;;;;30.07;6.77;;;13.10;99.90;;;;;;7288928;19;20215;-82
2023/05/26 05:15:46;;;;;;;29.67;6.57;;;13.50;99.90;;;;;;7287763;19;20210;-81
2023/05/26 05:18:12;;;;;;;34.87;7.20;;;13.60;99.90;;;;;;7287966;19;20188;-81
2023/05/26 05:20:39;;;;;;;33.17;6.50;;;14.10;99.90;;;;;;7288506;19;20205;-82
2023/05/26 05:23:05;;;;;;;28.77;6.63;;;14.80;99.90;;;;;;7289348;19;20249;-82
2023/05/26 05:25:31;;;;;;;30.00;6.80;;;15.00;99.90;;;;;;7293122;19;20221;-83
2023/05/26 05:27:57;;;;;;;33.23;6.40;;;15.00;99.90;;;;;;7311805;19;20198;-83
2023/05/26 05:30:23;;;;;;;36.37;6.30;;;15.20;99.90;;;;;;7288477;19;20193;-83
2023/05/26 05:32:49;;;;;;;37.23;6.63;;;15.20;99.90;;;;;;7288834;19;20690;-83
2023/05/26 05:35:14;;;;;;;29.57;6.10;;;15.30;99.90;;;;;;7289260;19;20548;-83
2023/05/26 05:37:40;;;;;;;34.40;6.60;;;15.20;99.90;;;;;;7288401;19;20205;-82
2023/05/26 05:40:07;;;;;;;28.07;6.13;;;15.20;99.90;;;;;;7287646;19;20550;-82
2023/05/26 05:42:33;;;;;;;30.57;6.57;;;15.40;99.90;;;;;;7288354;19;20243;-81
2023/05/26 05:44:59;;;;;;;30.63;6.60;;;15.70;99.90;;;;;;7306882;19;20191;-80
2023/05/26 05:47:54;;;;;;;32.77;6.20;;;16.10;99.90;;;;;;7287578;19;20191;-80
2023/05/26 05:50:20;;;;;;;32.63;6.50;;;16.40;99.90;;;;;;7287488;19;20202;-80
2023/05/26 05:52:48;;;;;;;34.60;7.00;;;16.30;99.90;;;;;;7287916;19;20536;-80
2023/05/26 05:55:15;;;;;;;28.07;6.83;;;16.20;99.90;;;;;;7286629;19;20192;-82
2023/05/26 05:57:41;;;;;;;32.20;7.27;;;16.10;99.90;;;;;;7286026;19;20195;-80
2023/05/26 06:00:09;;;;;;;38.50;7.07;;;15.90;99.90;;;;;;7284523;19;20199;-80
2023/05/26 06:02:39;;;;;;;31.00;6.60;;;16.20;99.90;;;;;;7286216;19;20217;-80
2023/05/26 06:05:05;;;;;;;27.67;7.60;;;16.40;99.90;;;;;;7283614;19;20605;-81
2023/05/26 06:07:31;;;;;;;31.40;6.47;;;16.40;99.90;;;;;;7290038;19;20593;-80
2023/05/26 06:09:57;;;;;;;32.33;7.80;;;16.30;99.90;;;;;;7309795;19;20188;-81
2023/05/26 06:12:23;;;;;;;35.60;7.67;;;16.20;99.90;;;;;;7287476;19;20205;-80
2023/05/26 06:14:49;;;;;;;32.73;7.63;;;16.20;99.90;;;;;;7287446;19;20196;-81
2023/05/26 06:17:15;;;;;;;31.70;7.80;;;16.00;99.90;;;;;;7287209;19;20199;-80
2023/05/26 06:19:41;;;;;;;27.97;7.20;;;15.50;99.90;;;;;;7288267;19;20875;-80
2023/05/26 06:22:06;;;;;;;28.60;7.10;;;15.70;99.90;;;;;;7287278;19;20263;-81
2023/05/26 06:24:32;;;;;;;30.73;6.73;;;16.10;99.90;;;;;;7286959;19;20227;-81
2023/05/26 06:27:00;;;;;;;30.53;7.23;;;16.10;99.90;;;;;;7306068;19;20213;-81
2023/05/26 06:29:26;;;;;;;29.10;6.83;;;16.40;99.90;;;;;;7308885;19;20187;-82
2023/05/26 06:31:53;;;;;;;30.33;6.40;;;17.20;99.90;;;;;;7285574;19;20558;-82
2023/05/26 06:34:20;;;;;;;36.23;7.50;;;18.00;99.90;;;;;;7286568;19;20218;-81
2023/05/26 06:36:45;;;;;;;29.20;7.27;;;18.30;99.90;;;;;;7285008;19;20619;-82
2023/05/26 06:39:11;;;;;;;27.23;7.07;;;18.00;99.90;;;;;;7287819;19;20621;-82
2023/05/26 06:41:37;;;;;;;28.47;7.90;;;17.80;99.90;;;;;;7286478;19;20641;-81
2023/05/26 06:44:03;;;;;;;27.33;7.03;;;17.70;99.90;;;;;;7285904;19;20694;-81
2023/05/26 06:46:31;;;;;;;29.57;6.83;;;18.00;99.90;;;;;;7293250;19;20212;-82
2023/05/26 06:48:57;;;;;;;32.93;7.03;;;19.40;99.90;;;;;;7309485;19;20552;-82
2023/05/26 06:51:39;;;;;;;30.77;6.90;;;20.00;99.90;;;;;;7183022;19;2004412;-82
2023/05/26 06:54:05;;;;;;;28.37;6.60;;;19.40;99.90;;;;;;7286579;19;20240;-81
2023/05/26 06:56:32;;;;;;;27.03;6.77;;;18.90;99.90;;;;;;7291111;19;20185;-81
2023/05/26 06:58:57;;;;;;;24.67;6.53;;;19.10;99.90;;;;;;7309384;19;20280;-81
2023/05/26 07:01:25;;;;;;;33.33;6.43;;;19.10;99.90;;;;;;7285184;19;20194;-82
2023/05/26 07:03:51;;;;;;;28.33;7.07;;;19.00;99.90;;;;;;7285546;19;20205;-82
2023/05/26 07:06:17;;;;;;;25.70;6.33;;;19.20;99.90;;;;;;7286944;19;20185;-82
2023/05/26 07:08:44;;;;;;;27.87;6.00;;;19.30;99.90;;;;;;7284646;19;20221;-82
2023/05/26 07:11:21;;;;;;;26.50;6.07;;;19.10;99.90;;;;;;7284625;19;20175;-82
2023/05/26 07:13:54;;;;;;;27.30;6.00;;;20.10;99.90;;;;;;7286282;19;20204;-81
2023/05/26 07:16:20;;;;;;;31.37;6.33;;;19.90;99.90;;;;;;7285232;19;20194;-82
2023/05/26 07:18:46;;;;;;;26.83;6.23;;;20.30;99.90;;;;;;7285508;19;20540;-82
2023/05/26 07:21:12;;;;;;;30.13;6.33;;;21.00;99.90;;;;;;7286308;19;20203;-82
2023/05/26 07:23:38;;;;;;;27.80;6.37;;;22.20;99.90;;;;;;7285116;19;20209;-82
2023/05/26 07:26:03;;;;;;;27.97;6.90;;;21.10;99.90;;;;;;7286274;19;20190;-82
2023/05/26 07:28:34;;;;;;;25.53;6.17;;;20.20;99.90;;;;;;7284851;19;20207;-82
2023/05/26 07:31:00;;;;;;;31.37;6.53;;;19.40;99.90;;;;;;7306230;19;20665;-82
2023/05/26 07:33:30;;;;;;;30.57;6.40;;;19.60;99.90;;;;;;7308936;19;20711;-82
2023/05/26 07:35:57;;;;;;;32.67;6.67;;;20.00;99.90;;;;;;7307041;19;20195;-82
2023/05/26 07:38:23;;;;;;;24.43;5.90;;;20.60;99.90;;;;;;7289615;19;20676;-82
2023/05/26 07:40:48;;;;;;;27.07;6.67;;;21.80;99.90;;;;;;7294317;19;20196;-83
2023/05/26 07:43:14;;;;;;;22.80;6.23;;;22.00;99.90;;;;;;7290405;19;20191;-83
2023/05/26 07:45:40;;;;;;;27.10;6.17;;;22.30;99.90;;;;;;7290789;19;20203;-82
2023/05/26 07:48:06;;;;;;;25.50;6.37;;;22.00;99.90;;;;;;7292612;19;20532;-82
2023/05/26 07:50:32;;;;;;;24.50;6.37;;;22.50;99.90;;;;;;7293528;19;20196;-82
2023/05/26 07:52:57;;;;;;;25.23;6.43;;;22.40;99.90;;;;;;7319436;19;20205;-82
2023/05/26 07:55:23;;;;;;;24.27;6.03;;;22.20;99.90;;;;;;7285707;19;20188;-83
2023/05/26 07:57:49;;;;;;;23.87;6.00;;;22.70;99.90;;;;;;7284750;19;20189;-83
2023/05/26 08:00:15;;;;;;;19.97;5.30;;;22.40;99.90;;;;;;7284580;19;20197;-83
2023/05/26 08:02:41;;;;;;;22.07;6.03;;;21.90;99.90;;;;;;7284012;19;20196;-82
2023/05/26 08:05:07;;;;;;;25.03;6.10;;;22.30;99.90;;;;;;7285572;19;20189;-85
2023/05/26 08:07:33;;;;;;;22.60;5.97;;;22.60;99.90;;;;;;7285186;19;20193;-81
2023/05/26 08:09:59;;;;;;;25.97;5.43;;;21.90;99.90;;;;;;7306842;19;20193;-82
2023/05/26 08:12:24;;;;;;;23.47;5.07;;;21.50;99.90;;;;;;7284446;19;20203;-82
2023/05/26 08:14:50;;;;;;;23.60;5.83;;;22.60;99.90;;;;;;7284101;19;20194;-83
2023/05/26 08:17:16;;;;;;;23.63;5.83;;;24.00;99.90;;;;;;7285078;19;20188;-82
2023/05/26 08:19:42;;;;;;;24.77;5.47;;;24.70;99.90;;;;;;7284807;19;20649;-83
2023/05/26 08:22:08;;;;;;;22.83;5.43;;;24.60;99.40;;;;;;7283668;19;20215;-82
2023/05/26 08:24:33;;;;;;;23.13;5.50;;;24.20;99.40;;;;;;7284712;19;20184;-83
2023/05/26 08:26:59;;;;;;;24.30;5.67;;;24.50;98.60;;;;;;7305852;19;20252;-82
2023/05/26 08:29:25;;;;;;;23.07;5.10;;;24.20;98.00;;;;;;7282483;19;20199;-82
2023/05/26 08:31:51;;;;;;;24.73;6.00;;;24.30;99.00;;;;;;7284665;19;20293;-81
2023/05/26 08:34:17;;;;;;;25.40;5.60;;;24.50;97.90;;;;;;7283493;19;20197;-82
2023/05/26 08:36:43;;;;;;;24.30;5.57;;;25.70;96.40;;;;;;7284411;19;20188;-81
2023/05/26 08:39:09;;;;;;;22.02;4.90;;;25.10;94.90;;;;;;7284136;19;20287;-81
2023/05/26 08:41:48;;;;;;;20.35;5.03;;;24.30;93.60;;;;;;7283899;19;20180;-81
2023/05/26 08:44:16;;;;;;;21.43;5.30;;;24.30;93.70;;;;;;7283383;19;20644;-82
2023/05/26 08:46:44;;;;;;;21.17;4.67;;;23.90;93.60;;;;;;7283040;19;20196;-82
2023/05/26 08:49:14;;;;;;;25.50;5.80;;;23.20;93.90;;;;;;7282592;19;20188;-82
2023/05/26 08:51:44;;;;;;;19.97;5.03;;;22.70;95.80;;;;;;7282895;19;20184;-82
2023/05/26 08:54:10;;;;;;;20.73;5.33;;;23.20;95.10;;;;;;7282909;19;20215;-82
2023/05/26 08:56:36;;;;;;;20.80;5.17;;;23.30;95.50;;;;;;7283109;19;20188;-82
2023/05/26 08:59:04;;;;;;;24.23;5.17;;;24.40;95.00;;;;;;7282357;19;20188;-82
2023/05/26 09:01:29;;;;;;;21.88;5.32;;;25.20;94.10;;;;;;7304596;19;20189;-82
2023/05/26 09:03:55;;;;;;;27.38;6.28;;;25.90;93.30;;;;;;7283165;19;20286;-82
2023/05/26 09:06:21;;;;;;;20.20;5.10;;;25.60;91.80;;;;;;7282936;19;20185;-82
2023/05/26 09:08:47;;;;;;;20.27;5.05;;;25.00;91.50;;;;;;7281313;19;20189;-82
2023/05/26 09:11:23;;;;;;;23.67;5.47;;;24.20;92.30;;;;;;7281990;19;20188;-81
2023/05/26 09:13:52;;;;;;;22.97;4.60;;;23.90;93.30;;;;;;7283076;19;20277;-83
2023/05/26 09:16:21;;;;;;;20.53;4.73;;;23.20;92.60;;;;;;7281977;19;20668;-82
2023/05/26 09:18:47;;;;;;;25.50;5.30;;;22.60;93.80;;;;;;7282198;19;20203;-82
2023/05/26 09:21:13;;;;;;;22.40;4.67;;;22.80;95.10;;;;;;7282841;19;20203;-83
2023/05/26 09:23:38;;;;;;;24.50;5.30;;;23.40;93.00;;;;;;7281593;19;20193;-82
2023/05/26 09:26:06;;;;;;;22.40;4.90;;;24.00;92.80;;;;;;7280943;19;20238;-82
2023/05/26 09:28:32;;;;;;;20.87;5.40;;;24.00;92.80;;;;;;7285920;19;20189;-82
2023/05/26 09:30:57;;;;;;;24.17;5.37;;;23.60;91.60;;;;;;7303770;19;20261;-83
2023/05/26 09:33:23;;;;;;;21.23;4.90;;;23.50;91.40;;;;;;7282406;19;20688;-82
2023/05/26 09:35:49;;;;;;;17.43;4.53;;;23.70;92.20;;;;;;7283790;19;20290;-83
2023/05/26 09:38:17;;;;;;;27.98;5.50;;;23.90;90.40;;;;;;7287496;19;20181;-83
2023/05/26 09:40:45;;;;;;;19.23;4.73;;;24.60;91.20;;;;;;7288611;19;20193;-82
2023/05/26 09:43:11;;;;;;;23.70;4.83;;;23.90;89.50;;;;;;7287736;19;20256;-83
2023/05/26 09:45:38;;;;;;;19.65;4.55;;;24.10;90.60;;;;;;7289728;19;20196;-82
2023/05/26 09:48:05;;;;;;;21.23;5.15;;;24.40;89.00;;;;;;7288626;19;20277;-83
2023/05/26 09:50:32;;;;;;;20.83;5.53;;;25.00;88.50;;;;;;7301505;19;20210;-82
2023/05/26 09:53:03;;;;;;;20.67;5.00;;;24.60;88.80;;;;;;7311211;19;20558;-83
2023/05/26 09:55:30;;;;;;;20.92;4.82;;;25.00;90.80;;;;;;7288721;19;20188;-83
2023/05/26 09:58:03;;;;;;;20.73;5.50;;;24.60;91.10;;;;;;7287373;19;20189;-83
2023/05/26 10:00:30;;;;;;;21.38;5.15;;;24.60;90.00;;;;;;7290056;19;20565;-83
2023/05/26 10:02:56;;;;;;;24.27;5.28;;;24.90;90.20;;;;;;7288286;19;20181;-83
2023/05/26 10:05:23;;;;;;;21.38;5.10;;;25.50;88.40;;;;;;7288802;19;20212;-83
2023/05/26 10:07:51;;;;;;;24.17;5.55;;;25.50;87.80;;;;;;7287913;19;20668;-83
2023/05/26 10:10:17;;;;;;;25.52;6.18;;;25.30;87.40;;;;;;7288096;19;20208;-82
2023/05/26 10:12:43;;;;;;;26.23;5.55;;;25.20;88.60;;;;;;7288175;19;20957;-82
2023/05/26 10:15:09;;;;;;;25.48;5.60;;;25.20;88.60;;;;;;7287219;19;20257;-83
2023/05/26 10:17:35;;;;;;;24.77;5.32;;;25.40;89.60;;;;;;7288276;19;20707;-83
2023/05/26 10:20:03;;;;;;;25.13;5.18;;;24.90;84.70;;;;;;7301028;19;20177;-82
2023/05/26 10:22:49;;;;;;;17.38;4.47;;;25.00;85.20;;;;;;7309667;19;20647;-83
2023/05/26 10:25:38;;;;;;;24.42;4.80;;;24.60;86.10;;;;;;7185558;19;2004648;-82
2023/05/26 10:28:29;;;;;;;20.50;5.20;;;25.10;86.40;;;;;;7266498;19;20627;-82
2023/05/26 10:31:03;;;;;;;18.30;5.07;;;24.70;84.60;;;;;;7287734;19;20255;-83
2023/05/26 10:33:43;;;;;;;20.88;4.72;;;24.80;83.40;;;;;;7289106;19;20648;-83
2023/05/26 10:36:17;;;;;;;24.17;5.05;;;24.90;83.20;;;;;;7184907;19;2006132;-83
2023/05/26 10:38:45;;;;;;;21.27;5.30;;;25.40;82.40;;;;;;7287407;19;20558;-82
2023/05/26 10:41:12;;;;;;;22.27;5.50;;;25.50;82.90;;;;;;7287601;19;20236;-83
2023/05/26 10:43:38;;;;;;;20.50;5.38;;;25.70;82.90;;;;;;7285776;19;20238;-83
2023/05/26 10:46:06;;;;;;;20.38;5.28;;;25.40;80.50;;;;;;7285641;19;20189;-82
2023/05/26 10:48:55;;;;;;;20.02;5.50;;;25.40;82.10;;;;;;7296303;19;20697;-82
2023/05/26 10:51:28;;;;;;;16.48;4.65;;;25.10;81.20;;;;;;7287501;19;20187;-82
2023/05/26 10:53:56;;;;;;;20.80;5.10;;;25.30;80.90;;;;;;7283961;19;20609;-82
2023/05/26 10:56:40;;;;;;;23.15;5.50;;;25.30;78.80;;;;;;7287747;19;20178;-82
2023/05/26 10:59:06;;;;;;;19.15;4.47;;;25.20;80.70;;;;;;7184620;19;2004685;-83
2023/05/26 11:01:33;;;;;;;20.08;4.50;;;25.70;80.10;;;;;;7291134;19;20544;-82
2023/05/26 11:04:05;;;;;;;20.55;4.65;;;25.10;77.90;;;;;;7307824;19;20189;-82
2023/05/26 11:06:52;;;;;;;21.70;4.78;;;24.70;79.40;;;;;;7281361;19;20209;-81
2023/05/26 11:09:27;;;;;;;21.92;4.93;;;24.90;77.90;;;;;;7285763;19;20197;-83
2023/05/26 11:11:58;;;;;;;22.27;4.95;;;24.30;80.70;;;;;;7286931;19;20189;-82
2023/05/26 11:14:33;;;;;;;21.27;4.70;;;25.00;82.20;;;;;;7286461;19;20781;-83
2023/05/26 11:17:04;;;;;;;22.83;5.22;;;25.40;79.00;;;;;;7286640;19;20278;-82
2023/05/26 11:19:35;;;;;;;18.90;4.53;;;24.80;77.10;;;;;;7287053;19;20185;-82
2023/05/26 11:22:04;;;;;;;18.33;4.32;;;24.30;78.10;;;;;;7282382;19;20595;-82
2023/05/26 11:24:31;;;;;;;18.80;4.43;;;24.80;75.60;;;;;;7306399;19;20556;-83
2023/05/26 11:27:01;;;;;;;20.88;4.93;;;25.10;76.40;;;;;;7286309;19;20184;-83
2023/05/26 11:29:27;;;;;;;23.85;4.88;;;25.20;77.40;;;;;;7285586;19;20189;-83
2023/05/26 11:31:53;;;;;;;19.63;4.95;;;25.60;79.50;;;;;;7286372;19;20200;-82
2023/05/26 11:34:21;;;;;;;21.38;5.40;;;26.00;77.30;;;;;;7286164;19;20181;-83
2023/05/26 11:36:48;;;;;;;21.25;4.72;;;25.70;75.30;;;;;;7285215;19;20261;-83
2023/05/26 11:39:15;;;;;;;23.15;5.07;;;25.40;76.10;;;;;;7284738;19;20185;-83
2023/05/26 11:41:41;;;;;;;20.00;5.25;;;25.80;76.90;;;;;;7285455;19;20192;-83
2023/05/26 11:44:08;;;;;;;22.25;5.45;;;25.60;77.10;;;;;;7284690;19;20189;-82
2023/05/26 11:46:37;;;;;;;20.15;5.05;;;25.60;77.40;;;;;;7285084;19;20645;-83
2023/05/26 11:49:03;;;;;;;18.13;4.80;;;26.30;77.70;;;;;;7284144;19;20767;-83
2023/05/26 11:51:31;;;;;;;20.67;4.43;;;25.80;74.00;;;;;;7307130;19;20188;-82
2023/05/26 11:53:59;;;;;;;22.95;5.32;;;25.00;74.20;;;;;;7284894;19;20194;-83
2023/05/26 11:56:35;;;;;;;16.60;4.47;;;25.50;75.70;;;;;;7284307;19;20213;-82
2023/05/26 11:59:01;;;;;;;17.10;4.63;;;25.60;73.80;;;;;;7280597;19;20200;-82
2023/05/26 12:01:28;;;;;;;21.15;5.00;;;25.70;72.60;;;;;;7302406;19;20188;-83
2023/05/26 12:03:56;;;;;;;20.58;4.75;;;25.10;70.90;;;;;;7285515;19;20547;-83
2023/05/26 12:06:23;;;;;;;19.23;5.03;;;23.80;73.30;;;;;;7285395;19;20270;-82
2023/05/26 12:08:50;;;;;;;20.53;4.60;;;22.60;76.40;;;;;;7284622;19;20200;-83
2023/05/26 12:11:29;;;;;;;19.83;4.60;;;22.20;80.00;;;;;;7285647;19;20282;-83
2023/05/26 12:14:03;;;;;;;22.40;4.97;;;21.90;80.60;;;;;;7284143;19;20185;-83
2023/05/26 12:16:32;;;;;;;19.27;4.47;;;22.00;82.50;;;;;;7284735;19;20196;-82
2023/05/26 12:19:06;;;;;;;21.10;4.73;;;21.90;82.10;;;;;;7283847;19;20181;-82
2023/05/26 12:21:44;;;;;;;21.10;4.57;;;21.90;85.70;;;;;;7272507;19;20707;-82
2023/05/26 12:24:10;;;;;;;18.57;4.40;;;22.20;87.90;;;;;;7283966;19;20720;-82
2023/05/26 12:26:37;;;;;;;20.23;4.30;;;22.10;85.00;;;;;;7285010;19;20232;-82
2023/05/26 12:29:07;;;;;;;20.13;4.50;;;22.00;84.10;;;;;;7284076;19;20652;-82
2023/05/26 12:31:45;;;;;;;18.10;4.40;;;21.90;81.10;;;;;;7281817;19;20529;-82
2023/05/26 12:34:22;;;;;;;23.20;4.77;;;21.50;84.40;;;;;;7284649;19;20644;-82
2023/05/26 12:36:49;;;;;;;16.97;4.50;;;21.00;83.20;;;;;;7282875;19;20202;-82
2023/05/26 12:39:16;;;;;;;17.70;4.33;;;21.00;85.80;;;;;;7283233;19;20194;-83
2023/05/26 12:41:42;;;;;;;19.53;4.33;;;21.00;84.90;;;;;;7281998;19;20199;-82